sensor_id;sensor_type;location;lat;lon;timestamp;P1;durP1;ratioP1;P2;durP2;ratioP2
20144;SDS011;10233;50.814;6.590;2023-05-10T00:00:11;9.03;;;6.57;;
20144;SDS011;10233;50.814;6.590;2023-05-10T00:01:15;8.63;;;6.30;;
20144;SDS011;10233;50.814;6.590;2023-05-10T00:02:16;10.67;;;6.80;;
20144;SDS011;10233;50.814;6.590;2023-05-10T00:03:17;9.98;;;6.80;;
20144;SDS011;10233;50.814;6.590;2023-05-10T00:04:17;9.63;;;7.20;;
20144;SDS011;10233;50.814;6.590;2023-05-10T00:05:18;9.10;;;6.68;;
20144;SDS011;10233;50.814;6.590;2023-05-10T00:06:19;11.35;;;7.10;;
20144;SDS011;10233;50.814;6.590;2023-05-10T00:07:20;11.57;;;7.30;;
20144;SDS011;10233;50.814;6.590;2023-05-10T00:08:21;11.13;;;7.07;;
20144;SDS011;10233;50.814;6.590;2023-05-10T00:09:21;9.77;;;6.57;;
20144;SDS011;10233;50.814;6.590;2023-05-10T00:10:22;9.98;;;7.25;;
20144;SDS011;10233;50.814;6.590;2023-05-10T00:11:23;11.17;;;7.40;;
20144;SDS011;10233;50.814;6.590;2023-05-10T00:12:23;10.88;;;7.30;;
20144;SDS011;10233;50.814;6.590;2023-05-10T00:13:24;10.40;;;7.60;;
20144;SDS011;10233;50.814;6.590;2023-05-10T00:14:24;12.25;;;7.60;;
20144;SDS011;10233;50.814;6.590;2023-05-10T00:15:25;11.43;;;7.50;;
20144;SDS011;10233;50.814;6.590;2023-05-10T00:16:25;11.18;;;7.43;;
20144;SDS011;10233;50.814;6.590;2023-05-10T00:17:26;10.67;;;7.60;;
20144;SDS011;10233;50.814;6.590;2023-05-10T00:18:29;11.10;;;7.32;;
20144;SDS011;10233;50.814;6.590;2023-05-10T00:19:30;11.38;;;7.28;;
20144;SDS011;10233;50.814;6.590;2023-05-10T00:20:31;11.52;;;7.43;;
20144;SDS011;10233;50.814;6.590;2023-05-10T00:21:31;11.07;;;7.70;;
20144;SDS011;10233;50.814;6.590;2023-05-10T00:22:33;12.07;;;7.95;;
20144;SDS011;10233;50.814;6.590;2023-05-10T00:23:34;12.27;;;7.78;;
20144;SDS011;10233;50.814;6.590;2023-05-10T00:24:35;11.50;;;7.63;;
20144;SDS011;10233;50.814;6.590;2023-05-10T00:25:35;11.98;;;7.82;;
20144;SDS011;10233;50.814;6.590;2023-05-10T00:26:36;12.07;;;7.73;;
20144;SDS011;10233;50.814;6.590;2023-05-10T00:27:37;11.95;;;7.85;;
20144;SDS011;10233;50.814;6.590;2023-05-10T00:28:37;13.00;;;8.30;;
20144;SDS011;10233;50.814;6.590;2023-05-10T00:29:38;10.00;;;7.50;;
20144;SDS011;10233;50.814;6.590;2023-05-10T00:30:38;11.43;;;7.57;;
20144;SDS011;10233;50.814;6.590;2023-05-10T00:31:39;10.80;;;7.63;;
20144;SDS011;10233;50.814;6.590;2023-05-10T00:32:40;11.32;;;7.85;;
20144;SDS011;10233;50.814;6.590;2023-05-10T00:33:40;11.50;;;7.77;;
20144;SDS011;10233;50.814;6.590;2023-05-10T00:34:41;12.27;;;8.77;;
20144;SDS011;10233;50.814;6.590;2023-05-10T00:35:42;11.07;;;7.78;;
20144;SDS011;10233;50.814;6.590;2023-05-10T00:36:43;11.30;;;7.60;;
20144;SDS011;10233;50.814;6.590;2023-05-10T00:37:43;11.70;;;7.70;;
20144;SDS011;10233;50.814;6.590;2023-05-10T00:38:44;13.18;;;8.88;;
20144;SDS011;10233;50.814;6.590;2023-05-10T00:39:45;11.50;;;7.70;;
20144;SDS011;10233;50.814;6.590;2023-05-10T00:40:45;11.13;;;7.57;;
20144;SDS011;10233;50.814;6.590;2023-05-10T00:41:54;12.73;;;8.27;;
20144;SDS011;10233;50.814;6.590;2023-05-10T00:42:56;12.02;;;8.02;;
20144;SDS011;10233;50.814;6.590;2023-05-10T00:43:57;12.77;;;8.02;;
20144;SDS011;10233;50.814;6.590;2023-05-10T00:44:58;11.65;;;7.45;;
20144;SDS011;10233;50.814;6.590;2023-05-10T00:45:58;10.87;;;7.33;;
20144;SDS011;10233;50.814;6.590;2023-05-10T00:46:59;10.50;;;7.20;;
20144;SDS011;10233;50.814;6.590;2023-05-10T00:48:01;10.82;;;7.30;;
20144;SDS011;10233;50.814;6.590;2023-05-10T00:49:04;10.90;;;7.45;;
20144;SDS011;10233;50.814;6.590;2023-05-10T00:50:04;11.00;;;7.60;;
20144;SDS011;10233;50.814;6.590;2023-05-10T00:51:06;13.25;;;7.93;;
20144;SDS011;10233;50.814;6.590;2023-05-10T00:52:06;12.60;;;7.20;;
20144;SDS011;10233;50.814;6.590;2023-05-10T00:53:08;12.80;;;7.40;;
20144;SDS011;10233;50.814;6.590;2023-05-10T00:54:10;12.15;;;7.60;;
20144;SDS011;10233;50.814;6.590;2023-05-10T00:55:12;13.35;;;8.13;;
20144;SDS011;10233;50.814;6.590;2023-05-10T00:56:13;10.73;;;7.23;;
20144;SDS011;10233;50.814;6.590;2023-05-10T00:57:14;12.20;;;7.53;;
20144;SDS011;10233;50.814;6.590;2023-05-10T00:58:14;11.48;;;7.55;;
20144;SDS011;10233;50.814;6.590;2023-05-10T00:59:16;13.10;;;8.18;;
20144;SDS011;10233;50.814;6.590;2023-05-10T01:00:17;11.73;;;7.35;;
20144;SDS011;10233;50.814;6.590;2023-05-10T01:01:19;10.35;;;6.57;;
20144;SDS011;10233;50.814;6.590;2023-05-10T01:02:19;10.02;;;7.05;;
20144;SDS011;10233;50.814;6.590;2023-05-10T01:03:20;10.87;;;7.23;;
20144;SDS011;10233;50.814;6.590;2023-05-10T01:04:22;12.30;;;7.53;;
20144;SDS011;10233;50.814;6.590;2023-05-10T01:05:25;9.85;;;6.95;;
20144;SDS011;10233;50.814;6.590;2023-05-10T01:06:27;10.55;;;6.70;;
20144;SDS011;10233;50.814;6.590;2023-05-10T01:07:28;8.65;;;6.05;;
20144;SDS011;10233;50.814;6.590;2023-05-10T01:08:29;9.38;;;6.10;;
20144;SDS011;10233;50.814;6.590;2023-05-10T01:09:30;9.98;;;6.80;;
20144;SDS011;10233;50.814;6.590;2023-05-10T01:10:32;9.20;;;6.38;;
20144;SDS011;10233;50.814;6.590;2023-05-10T01:11:36;9.32;;;6.28;;
20144;SDS011;10233;50.814;6.590;2023-05-10T01:12:39;8.75;;;5.82;;
20144;SDS011;10233;50.814;6.590;2023-05-10T01:13:42;9.02;;;5.88;;
20144;SDS011;10233;50.814;6.590;2023-05-10T01:14:47;9.98;;;6.18;;
20144;SDS011;10233;50.814;6.590;2023-05-10T01:15:48;9.18;;;6.00;;
20144;SDS011;10233;50.814;6.590;2023-05-10T01:16:49;8.80;;;5.57;;
20144;SDS011;10233;50.814;6.590;2023-05-10T01:17:50;8.90;;;5.70;;
20144;SDS011;10233;50.814;6.590;2023-05-10T01:18:54;8.63;;;5.60;;
20144;SDS011;10233;50.814;6.590;2023-05-10T01:19:55;8.98;;;5.88;;
20144;SDS011;10233;50.814;6.590;2023-05-10T01:20:59;10.73;;;6.50;;
20144;SDS011;10233;50.814;6.590;2023-05-10T01:31:06;6.57;;;4.53;;
20144;SDS011;10233;50.814;6.590;2023-05-10T01:33:27;5.65;;;4.00;;
20144;SDS011;10233;50.814;6.590;2023-05-10T01:36:15;5.55;;;3.47;;
20144;SDS011;10233;50.814;6.590;2023-05-10T01:37:24;5.63;;;3.60;;
20144;SDS011;10233;50.814;6.590;2023-05-10T01:38:50;5.30;;;3.60;;
20144;SDS011;10233;50.814;6.590;2023-05-10T01:40:01;6.40;;;3.97;;
20144;SDS011;10233;50.814;6.590;2023-05-10T01:41:18;6.28;;;3.83;;
20144;SDS011;10233;50.814;6.590;2023-05-10T01:42:26;6.15;;;4.00;;
20144;SDS011;10233;50.814;6.590;2023-05-10T01:43:48;7.13;;;3.75;;
20144;SDS011;10233;50.814;6.590;2023-05-10T01:45:14;5.95;;;3.80;;
20144;SDS011;10233;50.814;6.590;2023-05-10T01:46:43;6.65;;;4.20;;
20144;SDS011;10233;50.814;6.590;2023-05-10T01:47:43;8.68;;;5.40;;
20144;SDS011;10233;50.814;6.590;2023-05-10T01:48:50;6.88;;;4.70;;
20144;SDS011;10233;50.814;6.590;2023-05-10T01:49:54;8.23;;;5.10;;
20144;SDS011;10233;50.814;6.590;2023-05-10T01:51:02;8.00;;;5.20;;
20144;SDS011;10233;50.814;6.590;2023-05-10T01:52:09;7.25;;;4.63;;
20144;SDS011;10233;50.814;6.590;2023-05-10T01:53:13;10.13;;;5.20;;
20144;SDS011;10233;50.814;6.590;2023-05-10T01:54:19;7.50;;;4.78;;
20144;SDS011;10233;50.814;6.590;2023-05-10T01:55:22;7.47;;;4.93;;
20144;SDS011;10233;50.814;6.590;2023-05-10T01:56:28;8.48;;;5.60;;
20144;SDS011;10233;50.814;6.590;2023-05-10T01:57:32;8.07;;;4.95;;
20144;SDS011;10233;50.814;6.590;2023-05-10T01:58:35;8.38;;;5.35;;
20144;SDS011;10233;50.814;6.590;2023-05-10T01:59:39;9.15;;;5.85;;
20144;SDS011;10233;50.814;6.590;2023-05-10T02:00:43;10.93;;;5.87;;
20144;SDS011;10233;50.814;6.590;2023-05-10T02:01:46;10.77;;;6.47;;
20144;SDS011;10233;50.814;6.590;2023-05-10T02:02:48;9.00;;;5.90;;
20144;SDS011;10233;50.814;6.590;2023-05-10T02:03:50;8.82;;;6.20;;
20144;SDS011;10233;50.814;6.590;2023-05-10T02:04:51;10.82;;;7.00;;
20144;SDS011;10233;50.814;6.590;2023-05-10T02:05:53;11.63;;;6.70;;
20144;SDS011;10233;50.814;6.590;2023-05-10T02:06:56;9.95;;;6.38;;
20144;SDS011;10233;50.814;6.590;2023-05-10T02:07:58;11.57;;;7.00;;
20144;SDS011;10233;50.814;6.590;2023-05-10T02:09:01;12.50;;;7.38;;
20144;SDS011;10233;50.814;6.590;2023-05-10T02:10:04;13.07;;;7.22;;
20144;SDS011;10233;50.814;6.590;2023-05-10T02:11:07;14.27;;;7.88;;
20144;SDS011;10233;50.814;6.590;2023-05-10T02:12:11;10.32;;;6.95;;
20144;SDS011;10233;50.814;6.590;2023-05-10T02:13:14;13.90;;;7.85;;
20144;SDS011;10233;50.814;6.590;2023-05-10T02:14:17;11.02;;;7.60;;
20144;SDS011;10233;50.814;6.590;2023-05-10T02:15:20;13.93;;;7.88;;
20144;SDS011;10233;50.814;6.590;2023-05-10T02:16:24;12.70;;;7.85;;
20144;SDS011;10233;50.814;6.590;2023-05-10T02:17:27;12.68;;;8.10;;
20144;SDS011;10233;50.814;6.590;2023-05-10T02:18:30;13.25;;;7.85;;
20144;SDS011;10233;50.814;6.590;2023-05-10T02:19:33;13.38;;;7.75;;
20144;SDS011;10233;50.814;6.590;2023-05-10T02:20:36;13.05;;;8.02;;
20144;SDS011;10233;50.814;6.590;2023-05-10T02:21:39;14.40;;;8.15;;
20144;SDS011;10233;50.814;6.590;2023-05-10T02:22:41;11.45;;;7.28;;
20144;SDS011;10233;50.814;6.590;2023-05-10T02:23:43;13.27;;;7.38;;
20144;SDS011;10233;50.814;6.590;2023-05-10T02:24:45;12.93;;;7.28;;
20144;SDS011;10233;50.814;6.590;2023-05-10T02:25:47;10.48;;;6.55;;
20144;SDS011;10233;50.814;6.590;2023-05-10T02:26:48;13.52;;;7.10;;
20144;SDS011;10233;50.814;6.590;2023-05-10T02:27:52;12.05;;;6.97;;
20144;SDS011;10233;50.814;6.590;2023-05-10T02:28:55;11.00;;;6.93;;
20144;SDS011;10233;50.814;6.590;2023-05-10T02:29:58;10.98;;;6.85;;
20144;SDS011;10233;50.814;6.590;2023-05-10T02:30:59;11.32;;;6.68;;
20144;SDS011;10233;50.814;6.590;2023-05-10T02:32:01;10.65;;;6.65;;
20144;SDS011;10233;50.814;6.590;2023-05-10T02:33:03;11.55;;;6.80;;
20144;SDS011;10233;50.814;6.590;2023-05-10T02:34:05;11.65;;;7.07;;
20144;SDS011;10233;50.814;6.590;2023-05-10T02:35:07;12.55;;;7.35;;
20144;SDS011;10233;50.814;6.590;2023-05-10T02:36:09;11.15;;;6.85;;
20144;SDS011;10233;50.814;6.590;2023-05-10T02:37:13;12.95;;;7.18;;
20144;SDS011;10233;50.814;6.590;2023-05-10T02:38:16;10.75;;;6.70;;
20144;SDS011;10233;50.814;6.590;2023-05-10T02:39:19;11.40;;;6.80;;
20144;SDS011;10233;50.814;6.590;2023-05-10T02:40:21;10.95;;;6.28;;
20144;SDS011;10233;50.814;6.590;2023-05-10T02:41:24;13.50;;;7.65;;
20144;SDS011;10233;50.814;6.590;2023-05-10T02:42:26;10.70;;;6.90;;
20144;SDS011;10233;50.814;6.590;2023-05-10T02:43:28;12.75;;;7.53;;
20144;SDS011;10233;50.814;6.590;2023-05-10T02:44:31;13.48;;;7.40;;
20144;SDS011;10233;50.814;6.590;2023-05-10T02:45:34;11.55;;;7.20;;
20144;SDS011;10233;50.814;6.590;2023-05-10T02:46:36;13.82;;;8.20;;
20144;SDS011;10233;50.814;6.590;2023-05-10T02:47:37;12.73;;;7.57;;
20144;SDS011;10233;50.814;6.590;2023-05-10T02:48:38;13.30;;;8.02;;
20144;SDS011;10233;50.814;6.590;2023-05-10T02:49:39;13.55;;;8.10;;
20144;SDS011;10233;50.814;6.590;2023-05-10T02:50:41;14.73;;;7.97;;
20144;SDS011;10233;50.814;6.590;2023-05-10T02:51:47;14.77;;;8.32;;
20144;SDS011;10233;50.814;6.590;2023-05-10T02:52:51;14.38;;;8.48;;
20144;SDS011;10233;50.814;6.590;2023-05-10T02:53:56;14.05;;;7.85;;
20144;SDS011;10233;50.814;6.590;2023-05-10T02:55:02;13.35;;;7.95;;
20144;SDS011;10233;50.814;6.590;2023-05-10T02:56:05;13.35;;;7.95;;
20144;SDS011;10233;50.814;6.590;2023-05-10T02:57:16;14.10;;;7.78;;
20144;SDS011;10233;50.814;6.590;2023-05-10T02:58:21;15.23;;;7.97;;
20144;SDS011;10233;50.814;6.590;2023-05-10T02:59:22;12.15;;;7.80;;
20144;SDS011;10233;50.814;6.590;2023-05-10T03:00:24;12.73;;;7.60;;
20144;SDS011;10233;50.814;6.590;2023-05-10T03:01:25;11.63;;;7.55;;
20144;SDS011;10233;50.814;6.590;2023-05-10T03:02:26;12.57;;;7.93;;
20144;SDS011;10233;50.814;6.590;2023-05-10T03:03:27;11.90;;;7.47;;
20144;SDS011;10233;50.814;6.590;2023-05-10T03:04:27;11.75;;;7.53;;
20144;SDS011;10233;50.814;6.590;2023-05-10T03:05:30;14.07;;;7.57;;
20144;SDS011;10233;50.814;6.590;2023-05-10T03:06:34;12.15;;;8.07;;
20144;SDS011;10233;50.814;6.590;2023-05-10T03:07:36;12.70;;;7.80;;
20144;SDS011;10233;50.814;6.590;2023-05-10T03:08:37;14.83;;;7.97;;
20144;SDS011;10233;50.814;6.590;2023-05-10T03:09:39;13.38;;;8.07;;
20144;SDS011;10233;50.814;6.590;2023-05-10T03:12:27;12.38;;;7.80;;
20144;SDS011;10233;50.814;6.590;2023-05-10T03:16:15;11.65;;;7.63;;
20144;SDS011;10233;50.814;6.590;2023-05-10T03:17:25;12.18;;;8.10;;
20144;SDS011;10233;50.814;6.590;2023-05-10T03:19:47;12.82;;;8.02;;
20144;SDS011;10233;50.814;6.590;2023-05-10T03:21:00;12.95;;;8.52;;
20144;SDS011;10233;50.814;6.590;2023-05-10T03:22:08;12.63;;;8.43;;
20144;SDS011;10233;50.814;6.590;2023-05-10T03:23:13;13.13;;;8.07;;
20144;SDS011;10233;50.814;6.590;2023-05-10T03:24:23;12.13;;;8.02;;
20144;SDS011;10233;50.814;6.590;2023-05-10T03:25:29;14.32;;;8.30;;
20144;SDS011;10233;50.814;6.590;2023-05-10T03:26:31;14.07;;;8.23;;
20144;SDS011;10233;50.814;6.590;2023-05-10T03:27:42;13.52;;;8.02;;
20144;SDS011;10233;50.814;6.590;2023-05-10T03:28:44;13.35;;;8.13;;
20144;SDS011;10233;50.814;6.590;2023-05-10T03:29:48;14.55;;;8.63;;
20144;SDS011;10233;50.814;6.590;2023-05-10T03:30:51;12.88;;;8.05;;
20144;SDS011;10233;50.814;6.590;2023-05-10T03:31:53;12.40;;;7.95;;
20144;SDS011;10233;50.814;6.590;2023-05-10T03:32:53;13.90;;;8.77;;
20144;SDS011;10233;50.814;6.590;2023-05-10T03:33:54;14.10;;;8.50;;
20144;SDS011;10233;50.814;6.590;2023-05-10T03:34:59;13.45;;;7.97;;
20144;SDS011;10233;50.814;6.590;2023-05-10T03:36:00;10.90;;;7.47;;
20144;SDS011;10233;50.814;6.590;2023-05-10T03:37:00;11.95;;;7.53;;
20144;SDS011;10233;50.814;6.590;2023-05-10T03:38:04;13.10;;;7.80;;
20144;SDS011;10233;50.814;6.590;2023-05-10T03:39:05;11.37;;;7.80;;
20144;SDS011;10233;50.814;6.590;2023-05-10T03:40:05;11.93;;;7.45;;
20144;SDS011;10233;50.814;6.590;2023-05-10T03:41:09;11.65;;;7.65;;
20144;SDS011;10233;50.814;6.590;2023-05-10T03:42:10;11.57;;;7.70;;
20144;SDS011;10233;50.814;6.590;2023-05-10T03:43:12;10.95;;;7.45;;
20144;SDS011;10233;50.814;6.590;2023-05-10T03:44:13;14.13;;;8.80;;
20144;SDS011;10233;50.814;6.590;2023-05-10T03:45:13;13.97;;;7.47;;
20144;SDS011;10233;50.814;6.590;2023-05-10T03:46:14;10.37;;;6.87;;
20144;SDS011;10233;50.814;6.590;2023-05-10T03:47:15;11.50;;;6.68;;
20144;SDS011;10233;50.814;6.590;2023-05-10T03:48:16;12.77;;;7.20;;
20144;SDS011;10233;50.814;6.590;2023-05-10T03:49:17;11.50;;;6.88;;
20144;SDS011;10233;50.814;6.590;2023-05-10T03:50:18;11.52;;;6.68;;
20144;SDS011;10233;50.814;6.590;2023-05-10T03:51:19;12.37;;;6.90;;
20144;SDS011;10233;50.814;6.590;2023-05-10T03:52:19;11.30;;;6.88;;
20144;SDS011;10233;50.814;6.590;2023-05-10T03:53:21;13.18;;;7.07;;
20144;SDS011;10233;50.814;6.590;2023-05-10T03:54:23;11.23;;;6.90;;
20144;SDS011;10233;50.814;6.590;2023-05-10T03:55:24;11.87;;;7.50;;
20144;SDS011;10233;50.814;6.590;2023-05-10T03:56:24;11.40;;;7.18;;
20144;SDS011;10233;50.814;6.590;2023-05-10T03:57:25;13.63;;;7.10;;
20144;SDS011;10233;50.814;6.590;2023-05-10T03:58:26;11.77;;;7.17;;
20144;SDS011;10233;50.814;6.590;2023-05-10T03:59:27;11.40;;;6.82;;
20144;SDS011;10233;50.814;6.590;2023-05-10T04:00:27;10.30;;;6.72;;
20144;SDS011;10233;50.814;6.590;2023-05-10T04:01:29;12.88;;;7.00;;
20144;SDS011;10233;50.814;6.590;2023-05-10T04:02:30;11.88;;;6.97;;
20144;SDS011;10233;50.814;6.590;2023-05-10T04:03:30;10.43;;;6.90;;
20144;SDS011;10233;50.814;6.590;2023-05-10T04:04:31;11.88;;;7.00;;
20144;SDS011;10233;50.814;6.590;2023-05-10T04:05:32;13.45;;;7.25;;
20144;SDS011;10233;50.814;6.590;2023-05-10T04:06:33;9.83;;;6.70;;
20144;SDS011;10233;50.814;6.590;2023-05-10T04:07:33;12.48;;;7.20;;
20144;SDS011;10233;50.814;6.590;2023-05-10T04:08:34;14.23;;;8.02;;
20144;SDS011;10233;50.814;6.590;2023-05-10T04:09:35;12.90;;;7.53;;
20144;SDS011;10233;50.814;6.590;2023-05-10T04:10:35;12.57;;;7.47;;
20144;SDS011;10233;50.814;6.590;2023-05-10T04:11:36;13.00;;;7.80;;
20144;SDS011;10233;50.814;6.590;2023-05-10T04:12:37;12.70;;;7.90;;
20144;SDS011;10233;50.814;6.590;2023-05-10T04:13:37;13.15;;;7.35;;
20144;SDS011;10233;50.814;6.590;2023-05-10T04:14:38;14.00;;;8.50;;
20144;SDS011;10233;50.814;6.590;2023-05-10T04:15:39;12.98;;;8.40;;
20144;SDS011;10233;50.814;6.590;2023-05-10T04:16:40;13.23;;;8.45;;
20144;SDS011;10233;50.814;6.590;2023-05-10T04:17:40;16.73;;;8.40;;
20144;SDS011;10233;50.814;6.590;2023-05-10T04:18:41;13.87;;;7.90;;
20144;SDS011;10233;50.814;6.590;2023-05-10T04:19:41;14.70;;;8.23;;
20144;SDS011;10233;50.814;6.590;2023-05-10T04:20:42;12.37;;;8.07;;
20144;SDS011;10233;50.814;6.590;2023-05-10T04:21:43;13.68;;;8.80;;
20144;SDS011;10233;50.814;6.590;2023-05-10T04:22:43;13.90;;;8.50;;
20144;SDS011;10233;50.814;6.590;2023-05-10T04:23:44;13.63;;;8.43;;
20144;SDS011;10233;50.814;6.590;2023-05-10T04:24:44;14.73;;;8.57;;
20144;SDS011;10233;50.814;6.590;2023-05-10T04:25:45;13.65;;;8.93;;
20144;SDS011;10233;50.814;6.590;2023-05-10T04:26:46;14.50;;;9.43;;
20144;SDS011;10233;50.814;6.590;2023-05-10T04:27:46;16.83;;;9.48;;
20144;SDS011;10233;50.814;6.590;2023-05-10T04:28:47;15.37;;;8.90;;
20144;SDS011;10233;50.814;6.590;2023-05-10T04:29:48;17.27;;;9.63;;
20144;SDS011;10233;50.814;6.590;2023-05-10T04:30:48;16.52;;;9.85;;
20144;SDS011;10233;50.814;6.590;2023-05-10T04:31:52;15.70;;;9.88;;
20144;SDS011;10233;50.814;6.590;2023-05-10T04:32:53;17.02;;;10.18;;
20144;SDS011;10233;50.814;6.590;2023-05-10T04:33:54;18.07;;;10.47;;
20144;SDS011;10233;50.814;6.590;2023-05-10T04:34:54;17.98;;;10.85;;
20144;SDS011;10233;50.814;6.590;2023-05-10T04:35:55;16.50;;;10.20;;
20144;SDS011;10233;50.814;6.590;2023-05-10T04:36:56;18.40;;;10.30;;
20144;SDS011;10233;50.814;6.590;2023-05-10T04:37:56;15.60;;;9.77;;
20144;SDS011;10233;50.814;6.590;2023-05-10T04:38:57;20.63;;;10.50;;
20144;SDS011;10233;50.814;6.590;2023-05-10T04:39:58;17.27;;;9.32;;
20144;SDS011;10233;50.814;6.590;2023-05-10T04:41:03;17.95;;;9.88;;
20144;SDS011;10233;50.814;6.590;2023-05-10T04:42:07;18.92;;;10.52;;
20144;SDS011;10233;50.814;6.590;2023-05-10T04:43:08;16.83;;;10.23;;
20144;SDS011;10233;50.814;6.590;2023-05-10T04:44:09;21.03;;;11.27;;
20144;SDS011;10233;50.814;6.590;2023-05-10T04:45:09;22.20;;;11.60;;
20144;SDS011;10233;50.814;6.590;2023-05-10T04:46:10;18.67;;;10.85;;
20144;SDS011;10233;50.814;6.590;2023-05-10T04:47:11;20.07;;;11.07;;
20144;SDS011;10233;50.814;6.590;2023-05-10T04:48:13;16.55;;;10.43;;
20144;SDS011;10233;50.814;6.590;2023-05-10T04:49:13;18.60;;;10.00;;
20144;SDS011;10233;50.814;6.590;2023-05-10T04:50:14;17.40;;;9.80;;
20144;SDS011;10233;50.814;6.590;2023-05-10T04:51:15;16.00;;;8.65;;
20144;SDS011;10233;50.814;6.590;2023-05-10T04:52:16;17.00;;;9.80;;
20144;SDS011;10233;50.814;6.590;2023-05-10T04:53:17;15.93;;;9.35;;
20144;SDS011;10233;50.814;6.590;2023-05-10T04:54:18;15.60;;;9.10;;
20144;SDS011;10233;50.814;6.590;2023-05-10T04:55:19;14.48;;;8.98;;
20144;SDS011;10233;50.814;6.590;2023-05-10T04:56:22;16.65;;;9.25;;
20144;SDS011;10233;50.814;6.590;2023-05-10T04:57:23;15.25;;;8.40;;
20144;SDS011;10233;50.814;6.590;2023-05-10T04:58:23;16.33;;;8.43;;
20144;SDS011;10233;50.814;6.590;2023-05-10T04:59:24;13.60;;;8.45;;
20144;SDS011;10233;50.814;6.590;2023-05-10T05:00:24;12.93;;;7.60;;
20144;SDS011;10233;50.814;6.590;2023-05-10T05:01:25;13.73;;;8.55;;
20144;SDS011;10233;50.814;6.590;2023-05-10T05:02:25;15.93;;;7.77;;
20144;SDS011;10233;50.814;6.590;2023-05-10T05:03:26;15.05;;;8.23;;
20144;SDS011;10233;50.814;6.590;2023-05-10T05:04:27;14.87;;;7.60;;
20144;SDS011;10233;50.814;6.590;2023-05-10T05:05:27;15.40;;;8.50;;
20144;SDS011;10233;50.814;6.590;2023-05-10T05:06:28;13.17;;;7.57;;
20144;SDS011;10233;50.814;6.590;2023-05-10T05:07:28;14.48;;;7.95;;
20144;SDS011;10233;50.814;6.590;2023-05-10T05:08:30;15.35;;;7.90;;
20144;SDS011;10233;50.814;6.590;2023-05-10T05:09:31;12.50;;;7.10;;
20144;SDS011;10233;50.814;6.590;2023-05-10T05:10:34;13.67;;;7.30;;
20144;SDS011;10233;50.814;6.590;2023-05-10T05:11:35;14.40;;;7.18;;
20144;SDS011;10233;50.814;6.590;2023-05-10T05:12:35;13.15;;;7.35;;
20144;SDS011;10233;50.814;6.590;2023-05-10T05:13:36;11.57;;;6.60;;
20144;SDS011;10233;50.814;6.590;2023-05-10T05:14:39;10.95;;;7.00;;
20144;SDS011;10233;50.814;6.590;2023-05-10T05:15:41;12.77;;;6.78;;
20144;SDS011;10233;50.814;6.590;2023-05-10T05:16:41;13.40;;;7.20;;
20144;SDS011;10233;50.814;6.590;2023-05-10T05:17:42;11.20;;;6.10;;
20144;SDS011;10233;50.814;6.590;2023-05-10T05:18:43;11.05;;;6.40;;
20144;SDS011;10233;50.814;6.590;2023-05-10T05:19:44;11.80;;;7.15;;
20144;SDS011;10233;50.814;6.590;2023-05-10T05:20:44;11.47;;;6.47;;
20144;SDS011;10233;50.814;6.590;2023-05-10T05:21:45;13.27;;;6.75;;
20144;SDS011;10233;50.814;6.590;2023-05-10T05:22:46;11.33;;;6.10;;
20144;SDS011;10233;50.814;6.590;2023-05-10T05:23:46;9.70;;;5.63;;
20144;SDS011;10233;50.814;6.590;2023-05-10T05:24:47;10.13;;;5.73;;
20144;SDS011;10233;50.814;6.590;2023-05-10T05:25:47;9.38;;;5.78;;
20144;SDS011;10233;50.814;6.590;2023-05-10T05:26:48;12.07;;;5.70;;
20144;SDS011;10233;50.814;6.590;2023-05-10T05:27:49;10.85;;;5.80;;
20144;SDS011;10233;50.814;6.590;2023-05-10T05:28:49;11.77;;;5.80;;
20144;SDS011;10233;50.814;6.590;2023-05-10T05:29:53;11.20;;;5.60;;
20144;SDS011;10233;50.814;6.590;2023-05-10T05:30:54;10.02;;;5.38;;
20144;SDS011;10233;50.814;6.590;2023-05-10T05:31:54;9.70;;;5.20;;
20144;SDS011;10233;50.814;6.590;2023-05-10T05:32:55;10.45;;;5.25;;
20144;SDS011;10233;50.814;6.590;2023-05-10T05:33:56;11.15;;;5.35;;
20144;SDS011;10233;50.814;6.590;2023-05-10T05:34:57;11.85;;;6.13;;
20144;SDS011;10233;50.814;6.590;2023-05-10T05:36:00;10.50;;;5.57;;
20144;SDS011;10233;50.814;6.590;2023-05-10T05:37:02;10.88;;;5.55;;
20144;SDS011;10233;50.814;6.590;2023-05-10T05:38:03;11.50;;;5.40;;
20144;SDS011;10233;50.814;6.590;2023-05-10T05:39:03;9.95;;;5.20;;
20144;SDS011;10233;50.814;6.590;2023-05-10T05:40:04;8.52;;;4.82;;
20144;SDS011;10233;50.814;6.590;2023-05-10T05:41:06;10.48;;;5.45;;
20144;SDS011;10233;50.814;6.590;2023-05-10T05:42:06;10.32;;;5.10;;
20144;SDS011;10233;50.814;6.590;2023-05-10T05:43:07;9.77;;;5.17;;
20144;SDS011;10233;50.814;6.590;2023-05-10T05:44:08;8.02;;;4.85;;
20144;SDS011;10233;50.814;6.590;2023-05-10T05:45:09;10.43;;;4.95;;
20144;SDS011;10233;50.814;6.590;2023-05-10T05:46:12;9.02;;;4.97;;
20144;SDS011;10233;50.814;6.590;2023-05-10T05:47:13;9.73;;;4.90;;
20144;SDS011;10233;50.814;6.590;2023-05-10T05:48:14;11.63;;;5.03;;
20144;SDS011;10233;50.814;6.590;2023-05-10T05:49:14;9.27;;;5.03;;
20144;SDS011;10233;50.814;6.590;2023-05-10T05:50:15;10.60;;;5.03;;
20144;SDS011;10233;50.814;6.590;2023-05-10T05:51:15;7.93;;;4.43;;
20144;SDS011;10233;50.814;6.590;2023-05-10T05:52:16;11.73;;;5.20;;
20144;SDS011;10233;50.814;6.590;2023-05-10T05:53:16;8.53;;;4.47;;
20144;SDS011;10233;50.814;6.590;2023-05-10T05:54:17;9.00;;;4.97;;
20144;SDS011;10233;50.814;6.590;2023-05-10T05:55:18;9.20;;;5.07;;
20144;SDS011;10233;50.814;6.590;2023-05-10T05:56:18;9.48;;;4.78;;
20144;SDS011;10233;50.814;6.590;2023-05-10T05:57:24;12.02;;;4.68;;
20144;SDS011;10233;50.814;6.590;2023-05-10T05:58:26;9.52;;;4.72;;
20144;SDS011;10233;50.814;6.590;2023-05-10T05:59:28;10.00;;;4.97;;
20144;SDS011;10233;50.814;6.590;2023-05-10T06:00:28;9.77;;;4.60;;
20144;SDS011;10233;50.814;6.590;2023-05-10T06:01:29;10.32;;;5.05;;
20144;SDS011;10233;50.814;6.590;2023-05-10T06:02:29;12.33;;;4.60;;
20144;SDS011;10233;50.814;6.590;2023-05-10T06:03:30;10.18;;;5.00;;
20144;SDS011;10233;50.814;6.590;2023-05-10T06:04:30;12.07;;;5.10;;
20144;SDS011;10233;50.814;6.590;2023-05-10T06:05:31;8.15;;;4.93;;
20144;SDS011;10233;50.814;6.590;2023-05-10T06:06:32;9.70;;;4.80;;
20144;SDS011;10233;50.814;6.590;2023-05-10T06:07:32;11.05;;;5.90;;
20144;SDS011;10233;50.814;6.590;2023-05-10T06:08:33;10.20;;;5.37;;
20144;SDS011;10233;50.814;6.590;2023-05-10T06:09:34;9.40;;;4.80;;
20144;SDS011;10233;50.814;6.590;2023-05-10T06:10:34;11.40;;;5.38;;
20144;SDS011;10233;50.814;6.590;2023-05-10T06:11:35;13.83;;;5.60;;
20144;SDS011;10233;50.814;6.590;2023-05-10T06:12:36;11.73;;;5.47;;
20144;SDS011;10233;50.814;6.590;2023-05-10T06:13:37;10.07;;;5.00;;
20144;SDS011;10233;50.814;6.590;2023-05-10T06:14:37;11.75;;;4.95;;
20144;SDS011;10233;50.814;6.590;2023-05-10T06:15:38;11.73;;;5.30;;
20144;SDS011;10233;50.814;6.590;2023-05-10T06:16:38;12.50;;;5.35;;
20144;SDS011;10233;50.814;6.590;2023-05-10T06:17:39;10.33;;;4.73;;
20144;SDS011;10233;50.814;6.590;2023-05-10T06:18:40;9.45;;;5.07;;
20144;SDS011;10233;50.814;6.590;2023-05-10T06:19:41;9.00;;;4.90;;
20144;SDS011;10233;50.814;6.590;2023-05-10T06:20:41;11.40;;;5.17;;
20144;SDS011;10233;50.814;6.590;2023-05-10T06:21:43;12.57;;;6.43;;
20144;SDS011;10233;50.814;6.590;2023-05-10T06:22:43;10.23;;;5.15;;
20144;SDS011;10233;50.814;6.590;2023-05-10T06:23:44;9.27;;;4.80;;
20144;SDS011;10233;50.814;6.590;2023-05-10T06:24:44;10.18;;;5.18;;
20144;SDS011;10233;50.814;6.590;2023-05-10T06:25:45;10.20;;;4.60;;
20144;SDS011;10233;50.814;6.590;2023-05-10T06:26:46;10.40;;;4.82;;